sensor_id;sensor_type;location;lat;lon;timestamp;pressure;altitude;pressure_sealevel;temperature;humidity
21863;BME280;11096;51.338;12.524;2022-07-18T00:00:23;101029.50;;;12.26;nan
21863;BME280;11096;51.338;12.524;2022-07-18T00:02:48;101025.50;;;12.20;nan
21863;BME280;11096;51.338;12.524;2022-07-18T00:05:14;101028.09;;;12.20;nan
21863;BME280;11096;51.338;12.524;2022-07-18T00:07:39;101021.22;;;12.19;nan
21863;BME280;11096;51.338;12.524;2022-07-18T00:10:05;101031.75;;;12.18;nan
21863;BME280;11096;51.338;12.524;2022-07-18T00:12:30;101028.50;;;12.14;nan
21863;BME280;11096;51.338;12.524;2022-07-18T00:14:56;101034.72;;;12.12;nan
21863;BME280;11096;51.338;12.524;2022-07-18T00:17:21;101027.19;;;12.07;nan
21863;BME280;11096;51.338;12.524;2022-07-18T00:19:46;101026.84;;;11.99;nan
21863;BME280;11096;51.338;12.524;2022-07-18T00:22:12;101023.66;;;11.94;nan
21863;BME280;11096;51.338;12.524;2022-07-18T00:24:37;101028.28;;;11.89;nan
21863;BME280;11096;51.338;12.524;2022-07-18T00:27:03;101027.56;;;11.87;nan
21863;BME280;11096;51.338;12.524;2022-07-18T00:29:29;101027.63;;;11.85;nan
21863;BME280;11096;51.338;12.524;2022-07-18T00:31:55;101026.88;;;11.83;nan
21863;BME280;11096;51.338;12.524;2022-07-18T00:34:20;101030.78;;;11.76;nan
21863;BME280;11096;51.338;12.524;2022-07-18T00:36:46;101037.00;;;11.73;nan
21863;BME280;11096;51.338;12.524;2022-07-18T00:39:11;101031.16;;;11.70;nan
21863;BME280;11096;51.338;12.524;2022-07-18T00:41:37;101029.75;;;11.64;nan
21863;BME280;11096;51.338;12.524;2022-07-18T00:44:02;101034.22;;;11.62;nan
21863;BME280;11096;51.338;12.524;2022-07-18T00:46:28;101025.09;;;11.55;nan
21863;BME280;11096;51.338;12.524;2022-07-18T00:48:55;101027.00;;;11.51;nan
21863;BME280;11096;51.338;12.524;2022-07-18T00:51:20;101019.66;;;11.44;nan
21863;BME280;11096;51.338;12.524;2022-07-18T00:53:47;101025.41;;;11.34;nan
21863;BME280;11096;51.338;12.524;2022-07-18T00:56:17;101030.97;;;11.28;nan
21863;BME280;11096;51.338;12.524;2022-07-18T00:58:44;63458.50;;;-146.77;100.00
21863;BME280;11096;51.338;12.524;2022-07-18T01:01:09;63458.50;;;-146.77;100.00
21863;BME280;11096;51.338;12.524;2022-07-18T01:03:53;63458.50;;;-146.77;100.00
21863;BME280;11096;51.338;12.524;2022-07-18T01:06:19;63458.50;;;-146.77;100.00
21863;BME280;11096;51.338;12.524;2022-07-18T01:08:45;63458.50;;;-146.77;100.00
21863;BME280;11096;51.338;12.524;2022-07-18T01:11:10;101036.34;;;11.25;nan
21863;BME280;11096;51.338;12.524;2022-07-18T01:13:38;101036.88;;;11.16;nan
21863;BME280;11096;51.338;12.524;2022-07-18T01:16:04;101043.09;;;11.13;nan
21863;BME280;11096;51.338;12.524;2022-07-18T01:18:29;101039.81;;;11.10;nan
21863;BME280;11096;51.338;12.524;2022-07-18T01:20:55;101047.78;;;11.07;nan
21863;BME280;11096;51.338;12.524;2022-07-18T01:23:21;101052.75;;;11.11;nan
21863;BME280;11096;51.338;12.524;2022-07-18T01:25:46;101048.22;;;11.15;nan
21863;BME280;11096;51.338;12.524;2022-07-18T01:28:12;101040.41;;;11.15;nan
21863;BME280;11096;51.338;12.524;2022-07-18T01:30:37;101031.88;;;10.97;nan
21863;BME280;11096;51.338;12.524;2022-07-18T01:33:03;101029.88;;;10.86;nan
21863;BME280;11096;51.338;12.524;2022-07-18T01:35:30;101035.50;;;10.79;nan
21863;BME280;11096;51.338;12.524;2022-07-18T01:37:58;101022.41;;;10.80;nan
21863;BME280;11096;51.338;12.524;2022-07-18T01:40:24;101032.09;;;10.78;nan
21863;BME280;11096;51.338;12.524;2022-07-18T01:42:50;101037.59;;;10.72;nan
21863;BME280;11096;51.338;12.524;2022-07-18T01:45:16;101039.44;;;10.70;nan
21863;BME280;11096;51.338;12.524;2022-07-18T01:47:42;101037.09;;;10.65;nan
21863;BME280;11096;51.338;12.524;2022-07-18T01:50:08;101035.59;;;10.61;nan
21863;BME280;11096;51.338;12.524;2022-07-18T01:52:34;101036.44;;;10.62;nan
21863;BME280;11096;51.338;12.524;2022-07-18T01:54:59;101041.63;;;10.62;nan
21863;BME280;11096;51.338;12.524;2022-07-18T01:57:25;101037.44;;;10.59;nan
21863;BME280;11096;51.338;12.524;2022-07-18T01:59:50;101034.84;;;10.59;nan
21863;BME280;11096;51.338;12.524;2022-07-18T02:02:16;101033.25;;;10.57;nan
21863;BME280;11096;51.338;12.524;2022-07-18T02:04:41;101031.56;;;10.56;nan
21863;BME280;11096;51.338;12.524;2022-07-18T02:07:35;101031.72;;;10.52;nan
21863;BME280;11096;51.338;12.524;2022-07-18T02:10:21;101036.41;;;10.46;nan
21863;BME280;11096;51.338;12.524;2022-07-18T02:12:47;101038.34;;;10.42;nan
21863;BME280;11096;51.338;12.524;2022-07-18T02:15:14;101037.84;;;10.36;nan
21863;BME280;11096;51.338;12.524;2022-07-18T02:17:40;101039.78;;;10.32;nan
21863;BME280;11096;51.338;12.524;2022-07-18T02:20:08;101030.28;;;10.31;nan
21863;BME280;11096;51.338;12.524;2022-07-18T02:22:33;101027.00;;;10.27;nan
21863;BME280;11096;51.338;12.524;2022-07-18T02:24:59;101033.13;;;10.26;nan
21863;BME280;11096;51.338;12.524;2022-07-18T02:27:24;101028.00;;;10.25;nan
21863;BME280;11096;51.338;12.524;2022-07-18T02:29:50;101037.88;;;10.18;nan
21863;BME280;11096;51.338;12.524;2022-07-18T02:32:16;101037.19;;;10.15;nan
21863;BME280;11096;51.338;12.524;2022-07-18T02:34:42;101040.69;;;10.14;nan
21863;BME280;11096;51.338;12.524;2022-07-18T02:37:07;101030.19;;;10.17;nan
21863;BME280;11096;51.338;12.524;2022-07-18T02:39:33;101036.09;;;10.19;nan
21863;BME280;11096;51.338;12.524;2022-07-18T02:41:58;101023.75;;;10.24;nan
21863;BME280;11096;51.338;12.524;2022-07-18T02:44:24;101031.53;;;10.24;nan
21863;BME280;11096;51.338;12.524;2022-07-18T02:46:49;101030.00;;;10.20;nan
21863;BME280;11096;51.338;12.524;2022-07-18T02:49:15;101029.41;;;10.15;nan
21863;BME280;11096;51.338;12.524;2022-07-18T02:54:23;101025.16;;;9.80;nan
21863;BME280;11096;51.338;12.524;2022-07-18T02:56:49;101025.91;;;9.82;nan
21863;BME280;11096;51.338;12.524;2022-07-18T02:59:15;101032.69;;;9.85;nan
21863;BME280;11096;51.338;12.524;2022-07-18T03:01:40;101031.59;;;9.89;nan
21863;BME280;11096;51.338;12.524;2022-07-18T03:04:06;101028.34;;;9.85;nan
21863;BME280;11096;51.338;12.524;2022-07-18T03:06:31;101026.97;;;9.78;nan
21863;BME280;11096;51.338;12.524;2022-07-18T03:08:56;101027.81;;;9.61;nan
21863;BME280;11096;51.338;12.524;2022-07-18T03:11:22;101029.16;;;9.53;nan
21863;BME280;11096;51.338;12.524;2022-07-18T03:13:47;101027.16;;;9.58;nan
21863;BME280;11096;51.338;12.524;2022-07-18T03:16:12;101023.34;;;9.65;nan
21863;BME280;11096;51.338;12.524;2022-07-18T03:18:38;101023.84;;;9.72;nan
21863;BME280;11096;51.338;12.524;2022-07-18T03:21:03;101030.56;;;9.76;nan
21863;BME280;11096;51.338;12.524;2022-07-18T03:23:28;101029.03;;;9.72;nan
21863;BME280;11096;51.338;12.524;2022-07-18T03:25:54;101035.69;;;9.77;nan
21863;BME280;11096;51.338;12.524;2022-07-18T03:28:19;101042.53;;;9.78;nan
21863;BME280;11096;51.338;12.524;2022-07-18T03:30:44;101040.50;;;9.85;nan
21863;BME280;11096;51.338;12.524;2022-07-18T03:33:10;101039.31;;;9.91;nan
21863;BME280;11096;51.338;12.524;2022-07-18T03:35:35;101034.97;;;9.91;nan
21863;BME280;11096;51.338;12.524;2022-07-18T03:38:01;101033.19;;;9.92;nan
21863;BME280;11096;51.338;12.524;2022-07-18T03:40:26;101043.22;;;9.99;nan
21863;BME280;11096;51.338;12.524;2022-07-18T03:42:52;101037.03;;;10.02;nan
21863;BME280;11096;51.338;12.524;2022-07-18T03:45:17;101039.84;;;9.97;nan
21863;BME280;11096;51.338;12.524;2022-07-18T03:47:42;101029.94;;;9.88;nan
21863;BME280;11096;51.338;12.524;2022-07-18T03:50:08;101031.94;;;9.83;nan
21863;BME280;11096;51.338;12.524;2022-07-18T03:52:33;101041.19;;;9.71;nan
21863;BME280;11096;51.338;12.524;2022-07-18T03:54:59;101041.63;;;9.79;nan
21863;BME280;11096;51.338;12.524;2022-07-18T03:57:27;101042.22;;;9.84;nan
21863;BME280;11096;51.338;12.524;2022-07-18T03:59:52;101038.09;;;9.98;nan
21863;BME280;11096;51.338;12.524;2022-07-18T04:02:17;101040.88;;;10.10;nan
21863;BME280;11096;51.338;12.524;2022-07-18T04:04:43;101043.66;;;10.23;nan
21863;BME280;11096;51.338;12.524;2022-07-18T04:07:08;101033.75;;;10.31;nan
21863;BME280;11096;51.338;12.524;2022-07-18T04:09:33;101033.16;;;10.42;nan
21863;BME280;11096;51.338;12.524;2022-07-18T04:11:59;101035.84;;;10.57;nan
21863;BME280;11096;51.338;12.524;2022-07-18T04:14:24;101033.47;;;10.68;nan
21863;BME280;11096;51.338;12.524;2022-07-18T04:16:49;101031.91;;;10.81;nan
21863;BME280;11096;51.338;12.524;2022-07-18T04:19:15;101040.78;;;10.93;nan
21863;BME280;11096;51.338;12.524;2022-07-18T04:21:42;101039.09;;;11.08;nan
21863;BME280;11096;51.338;12.524;2022-07-18T04:24:08;101039.03;;;11.24;nan
21863;BME280;11096;51.338;12.524;2022-07-18T04:26:33;101037.38;;;11.37;nan
21863;BME280;11096;51.338;12.524;2022-07-18T04:28:58;101033.09;;;11.52;nan
21863;BME280;11096;51.338;12.524;2022-07-18T04:31:24;101036.63;;;11.65;nan
21863;BME280;11096;51.338;12.524;2022-07-18T04:33:49;101028.72;;;11.81;nan
21863;BME280;11096;51.338;12.524;2022-07-18T04:36:14;101027.84;;;11.96;nan
21863;BME280;11096;51.338;12.524;2022-07-18T04:38:40;101036.88;;;12.05;nan
21863;BME280;11096;51.338;12.524;2022-07-18T04:41:06;101030.91;;;12.17;nan
21863;BME280;11096;51.338;12.524;2022-07-18T04:43:32;101022.88;;;12.35;nan
21863;BME280;11096;51.338;12.524;2022-07-18T04:45:57;101027.31;;;12.47;nan
21863;BME280;11096;51.338;12.524;2022-07-18T04:48:23;101025.78;;;12.72;nan
21863;BME280;11096;51.338;12.524;2022-07-18T04:50:48;101018.34;;;12.93;nan
21863;BME280;11096;51.338;12.524;2022-07-18T04:53:14;101023.59;;;13.05;nan
21863;BME280;11096;51.338;12.524;2022-07-18T04:55:39;101025.31;;;13.19;nan
21863;BME280;11096;51.338;12.524;2022-07-18T04:58:04;101025.25;;;13.34;nan
21863;BME280;11096;51.338;12.524;2022-07-18T05:00:30;101022.25;;;13.52;nan
21863;BME280;11096;51.338;12.524;2022-07-18T05:02:56;101023.22;;;13.77;nan
21863;BME280;11096;51.338;12.524;2022-07-18T05:05:24;101023.72;;;13.82;nan
21863;BME280;11096;51.338;12.524;2022-07-18T05:07:50;101026.47;;;13.93;nan
21863;BME280;11096;51.338;12.524;2022-07-18T05:10:17;101018.78;;;14.16;nan
21863;BME280;11096;51.338;12.524;2022-07-18T05:12:50;101023.44;;;14.36;nan
21863;BME280;11096;51.338;12.524;2022-07-18T05:15:17;101020.06;;;14.60;nan
21863;BME280;11096;51.338;12.524;2022-07-18T05:17:44;101014.63;;;14.87;nan
21863;BME280;11096;51.338;12.524;2022-07-18T05:20:13;101024.03;;;14.90;nan
21863;BME280;11096;51.338;12.524;2022-07-18T05:22:39;101022.56;;;15.10;nan
21863;BME280;11096;51.338;12.524;2022-07-18T05:25:06;101021.16;;;15.17;nan
21863;BME280;11096;51.338;12.524;2022-07-18T05:27:31;101025.97;;;15.34;nan
21863;BME280;11096;51.338;12.524;2022-07-18T05:29:57;101026.63;;;15.60;nan
21863;BME280;11096;51.338;12.524;2022-07-18T05:32:24;101017.84;;;16.06;nan
21863;BME280;11096;51.338;12.524;2022-07-18T05:34:50;101023.06;;;16.29;nan
21863;BME280;11096;51.338;12.524;2022-07-18T05:37:15;101021.38;;;16.50;nan
21863;BME280;11096;51.338;12.524;2022-07-18T05:39:41;101020.66;;;16.60;nan
21863;BME280;11096;51.338;12.524;2022-07-18T05:42:06;101017.00;;;16.83;nan
21863;BME280;11096;51.338;12.524;2022-07-18T05:44:32;101021.69;;;17.12;nan
21863;BME280;11096;51.338;12.524;2022-07-18T05:46:57;101019.13;;;17.22;nan
21863;BME280;11096;51.338;12.524;2022-07-18T05:49:22;101022.16;;;17.38;nan
21863;BME280;11096;51.338;12.524;2022-07-18T05:51:48;101021.41;;;17.57;nan
21863;BME280;11096;51.338;12.524;2022-07-18T05:54:13;101021.06;;;17.83;nan
21863;BME280;11096;51.338;12.524;2022-07-18T05:56:48;101027.31;;;17.70;nan
21863;BME280;11096;51.338;12.524;2022-07-18T05:59:15;101036.94;;;17.81;nan
21863;BME280;11096;51.338;12.524;2022-07-18T06:01:41;101026.53;;;17.79;nan
21863;BME280;11096;51.338;12.524;2022-07-18T06:04:06;101024.03;;;18.09;nan
21863;BME280;11096;51.338;12.524;2022-07-18T06:06:31;101028.41;;;18.19;nan
21863;BME280;11096;51.338;12.524;2022-07-18T06:08:57;101025.41;;;18.53;nan
21863;BME280;11096;51.338;12.524;2022-07-18T06:11:22;101019.50;;;18.61;nan
21863;BME280;11096;51.338;12.524;2022-07-18T06:13:48;101019.81;;;19.06;nan
21863;BME280;11096;51.338;12.524;2022-07-18T06:16:13;101022.03;;;19.01;nan
21863;BME280;11096;51.338;12.524;2022-07-18T06:18:38;101015.94;;;19.20;nan
21863;BME280;11096;51.338;12.524;2022-07-18T06:21:04;101005.47;;;19.48;nan
21863;BME280;11096;51.338;12.524;2022-07-18T06:23:29;101013.31;;;19.77;nan
21863;BME280;11096;51.338;12.524;2022-07-18T06:25:56;101022.72;;;20.17;nan
21863;BME280;11096;51.338;12.524;2022-07-18T06:28:22;101016.53;;;20.36;nan
21863;BME280;11096;51.338;12.524;2022-07-18T06:30:47;101020.06;;;20.90;nan
21863;BME280;11096;51.338;12.524;2022-07-18T06:33:13;101020.97;;;20.81;nan
21863;BME280;11096;51.338;12.524;2022-07-18T06:35:39;101022.78;;;20.80;nan
21863;BME280;11096;51.338;12.524;2022-07-18T06:38:05;101027.22;;;20.62;nan
21863;BME280;11096;51.338;12.524;2022-07-18T06:40:31;101030.47;;;20.56;nan
21863;BME280;11096;51.338;12.524;2022-07-18T06:42:56;101029.34;;;20.76;nan
21863;BME280;11096;51.338;12.524;2022-07-18T06:45:22;101033.28;;;21.52;nan
21863;BME280;11096;51.338;12.524;2022-07-18T06:47:47;101027.59;;;21.73;nan
21863;BME280;11096;51.338;12.524;2022-07-18T06:50:14;101027.03;;;22.22;nan
21863;BME280;11096;51.338;12.524;2022-07-18T06:52:42;101020.84;;;22.64;nan
21863;BME280;11096;51.338;12.524;2022-07-18T06:55:08;101027.03;;;22.22;nan
21863;BME280;11096;51.338;12.524;2022-07-18T06:57:34;101026.50;;;22.69;nan
21863;BME280;11096;51.338;12.524;2022-07-18T07:00:00;101028.66;;;22.73;nan
21863;BME280;11096;51.338;12.524;2022-07-18T07:02:26;101035.13;;;22.96;nan
21863;BME280;11096;51.338;12.524;2022-07-18T07:04:51;101027.38;;;23.27;nan
21863;BME280;11096;51.338;12.524;2022-07-18T07:07:16;101021.25;;;23.26;nan
21863;BME280;11096;51.338;12.524;2022-07-18T07:09:42;101025.84;;;22.83;nan
21863;BME280;11096;51.338;12.524;2022-07-18T07:12:07;101023.72;;;23.28;nan
21863;BME280;11096;51.338;12.524;2022-07-18T07:14:32;101023.34;;;22.65;nan
21863;BME280;11096;51.338;12.524;2022-07-18T07:16:58;101025.22;;;22.98;nan
21863;BME280;11096;51.338;12.524;2022-07-18T07:19:24;101018.03;;;23.64;nan
21863;BME280;11096;51.338;12.524;2022-07-18T07:21:49;101026.84;;;24.12;nan
21863;BME280;11096;51.338;12.524;2022-07-18T07:24:15;101018.88;;;24.43;nan
21863;BME280;11096;51.338;12.524;2022-07-18T07:26:40;101018.50;;;23.84;nan
21863;BME280;11096;51.338;12.524;2022-07-18T07:29:05;101019.06;;;24.50;nan
21863;BME280;11096;51.338;12.524;2022-07-18T07:31:31;101019.03;;;24.18;nan
21863;BME280;11096;51.338;12.524;2022-07-18T07:33:56;101018.28;;;24.87;nan
21863;BME280;11096;51.338;12.524;2022-07-18T07:36:21;101017.81;;;25.44;nan
21863;BME280;11096;51.338;12.524;2022-07-18T07:38:47;101024.25;;;25.65;nan
21863;BME280;11096;51.338;12.524;2022-07-18T07:41:13;101011.78;;;25.95;nan
21863;BME280;11096;51.338;12.524;2022-07-18T07:43:41;101014.03;;;26.49;nan
21863;BME280;11096;51.338;12.524;2022-07-18T07:46:07;101018.72;;;26.84;nan
21863;BME280;11096;51.338;12.524;2022-07-18T07:48:32;101012.50;;;26.76;nan
21863;BME280;11096;51.338;12.524;2022-07-18T07:50:57;101001.91;;;26.62;nan
21863;BME280;11096;51.338;12.524;2022-07-18T07:53:23;101000.44;;;26.81;nan
21863;BME280;11096;51.338;12.524;2022-07-18T07:55:49;101001.81;;;26.76;nan
21863;BME280;11096;51.338;12.524;2022-07-18T07:58:14;101000.81;;;26.77;nan
21863;BME280;11096;51.338;12.524;2022-07-18T08:00:39;100997.53;;;27.25;nan
21863;BME280;11096;51.338;12.524;2022-07-18T08:03:07;100997.47;;;27.18;nan
21863;BME280;11096;51.338;12.524;2022-07-18T08:05:35;101003.34;;;26.64;nan
21863;BME280;11096;51.338;12.524;2022-07-18T08:08:02;100995.25;;;26.36;nan
21863;BME280;11096;51.338;12.524;2022-07-18T08:10:28;101002.06;;;26.39;nan
21863;BME280;11096;51.338;12.524;2022-07-18T08:12:54;100997.53;;;26.03;nan
21863;BME280;11096;51.338;12.524;2022-07-18T08:15:19;100992.38;;;25.71;nan
21863;BME280;11096;51.338;12.524;2022-07-18T08:17:45;100990.66;;;26.30;nan
21863;BME280;11096;51.338;12.524;2022-07-18T08:20:10;100986.31;;;26.87;nan
21863;BME280;11096;51.338;12.524;2022-07-18T08:22:56;100976.38;;;27.24;nan
21863;BME280;11096;51.338;12.524;2022-07-18T08:25:23;100975.28;;;27.46;nan
21863;BME280;11096;51.338;12.524;2022-07-18T08:27:48;100966.47;;;27.87;nan
21863;BME280;11096;51.338;12.524;2022-07-18T08:30:14;100973.28;;;27.61;nan
21863;BME280;11096;51.338;12.524;2022-07-18T08:32:40;100964.06;;;28.05;nan
21863;BME280;11096;51.338;12.524;2022-07-18T08:35:06;100962.28;;;28.39;nan
21863;BME280;11096;51.338;12.524;2022-07-18T08:37:31;100962.72;;;28.36;nan
21863;BME280;11096;51.338;12.524;2022-07-18T08:39:57;100958.47;;;27.87;nan
21863;BME280;11096;51.338;12.524;2022-07-18T08:42:25;100969.41;;;28.05;nan
21863;BME280;11096;51.338;12.524;2022-07-18T08:44:54;100966.91;;;27.97;nan
21863;BME280;11096;51.338;12.524;2022-07-18T08:47:20;100962.66;;;28.23;nan
21863;BME280;11096;51.338;12.524;2022-07-18T08:49:46;100971.97;;;28.34;nan
21863;BME280;11096;51.338;12.524;2022-07-18T08:52:14;100975.22;;;28.16;nan
21863;BME280;11096;51.338;12.524;2022-07-18T08:54:39;100964.34;;;28.31;nan
21863;BME280;11096;51.338;12.524;2022-07-18T08:57:05;100966.88;;;28.79;nan
21863;BME280;11096;51.338;12.524;2022-07-18T08:59:30;100972.88;;;28.87;nan
21863;BME280;11096;51.338;12.524;2022-07-18T09:01:56;100974.69;;;29.00;nan
21863;BME280;11096;51.338;12.524;2022-07-18T09:04:41;100969.75;;;29.30;nan
21863;BME280;11096;51.338;12.524;2022-07-18T09:07:08;100965.88;;;29.00;nan
21863;BME280;11096;51.338;12.524;2022-07-18T09:09:34;100963.25;;;28.05;nan
21863;BME280;11096;51.338;12.524;2022-07-18T09:12:03;100961.00;;;28.09;nan
21863;BME280;11096;51.338;12.524;2022-07-18T09:14:36;100960.13;;;27.53;nan
21863;BME280;11096;51.338;12.524;2022-07-18T09:17:12;100956.19;;;28.45;nan
21863;BME280;11096;51.338;12.524;2022-07-18T09:19:41;100957.22;;;28.98;nan
21863;BME280;11096;51.338;12.524;2022-07-18T09:22:26;100957.91;;;29.71;nan
21863;BME280;11096;51.338;12.524;2022-07-18T09:25:18;100955.06;;;29.66;nan
21863;BME280;11096;51.338;12.524;2022-07-18T09:27:49;100950.19;;;29.37;nan
21863;BME280;11096;51.338;12.524;2022-07-18T09:30:25;100956.66;;;29.74;nan
21863;BME280;11096;51.338;12.524;2022-07-18T09:32:53;100959.72;;;30.23;nan
21863;BME280;11096;51.338;12.524;2022-07-18T09:35:36;100959.19;;;30.46;nan
21863;BME280;11096;51.338;12.524;2022-07-18T09:40:35;63458.50;;;-146.77;100.00
21863;BME280;11096;51.338;12.524;2022-07-18T09:43:04;63458.50;;;-146.77;100.00
21863;BME280;11096;51.338;12.524;2022-07-18T09:45:35;63458.50;;;-146.77;100.00
21863;BME280;11096;51.338;12.524;2022-07-18T09:48:05;63458.50;;;-146.77;100.00
21863;BME280;11096;51.338;12.524;2022-07-18T09:50:37;63458.50;;;-146.77;100.00
21863;BME280;11096;51.338;12.524;2022-07-18T09:53:04;63458.50;;;-146.77;100.00
21863;BME280;11096;51.338;12.524;2022-07-18T09:55:30;63458.50;;;-146.77;100.00
21863;BME280;11096;51.338;12.524;2022-07-18T10:00:31;63458.50;;;-146.77;100.00
21863;BME280;11096;51.338;12.524;2022-07-18T10:02:58;63458.50;;;-146.77;100.00
21863;BME280;11096;51.338;12.524;2022-07-18T10:05:29;63458.50;;;-146.77;100.00
21863;BME280;11096;51.338;12.524;2022-07-18T10:07:55;63458.50;;;-146.77;100.00
21863;BME280;11096;51.338;12.524;2022-07-18T10:10:22;63458.50;;;-146.77;100.00
21863;BME280;11096;51.338;12.524;2022-07-18T10:12:54;63458.50;;;-146.77;100.00
21863;BME280;11096;51.338;12.524;2022-07-18T10:15:21;63458.50;;;-146.77;100.00
21863;BME280;11096;51.338;12.524;2022-07-18T10:17:48;63458.50;;;-146.77;100.00
21863;BME280;11096;51.338;12.524;2022-07-18T10:20:13;63458.50;;;-146.77;100.00
21863;BME280;11096;51.338;12.524;2022-07-18T10:22:40;63458.50;;;-146.77;100.00
21863;BME280;11096;51.338;12.524;2022-07-18T10:25:11;63458.50;;;-146.77;100.00
21863;BME280;11096;51.338;12.524;2022-07-18T10:30:15;63458.50;;;-146.77;100.00
21863;BME280;11096;51.338;12.524;2022-07-18T10:32:41;63458.50;;;-146.77;100.00
21863;BME280;11096;51.338;12.524;2022-07-18T10:35:08;63458.50;;;-146.77;100.00
21863;BME280;11096;51.338;12.524;2022-07-18T10:37:36;63458.50;;;-146.77;100.00
21863;BME280;11096;51.338;12.524;2022-07-18T10:40:23;63458.50;;;-146.77;100.00
21863;BME280;11096;51.338;12.524;2022-07-18T10:45:54;63458.50;;;-146.77;100.00
21863;BME280;11096;51.338;12.524;2022-07-18T10:51:14;63458.50;;;-146.77;100.00
21863;BME280;11096;51.338;12.524;2022-07-18T10:58:54;63458.50;;;-146.77;100.00
21863;BME280;11096;51.338;12.524;2022-07-18T11:01:20;63458.50;;;-146.77;100.00
21863;BME280;11096;51.338;12.524;2022-07-18T11:03:48;63458.50;;;-146.77;100.00
21863;BME280;11096;51.338;12.524;2022-07-18T11:06:14;63458.50;;;-146.77;100.00
21863;BME280;11096;51.338;12.524;2022-07-18T11:08:40;63458.50;;;-146.77;100.00
21863;BME280;11096;51.338;12.524;2022-07-18T11:11:10;63458.50;;;-146.77;100.00
21863;BME280;11096;51.338;12.524;2022-07-18T11:13:37;63458.50;;;-146.77;100.00
21863;BME280;11096;51.338;12.524;2022-07-18T11:21:26;63458.50;;;-146.77;100.00
21863;BME280;11096;51.338;12.524;2022-07-18T11:24:03;63458.50;;;-146.77;100.00
21863;BME280;11096;51.338;12.524;2022-07-18T11:26:30;63458.50;;;-146.77;100.00
21863;BME280;11096;51.338;12.524;2022-07-18T11:29:09;63458.50;;;-146.77;100.00
21863;BME280;11096;51.338;12.524;2022-07-18T11:31:53;63458.50;;;-146.77;100.00
21863;BME280;11096;51.338;12.524;2022-07-18T11:34:20;63458.50;;;-146.77;100.00
21863;BME280;11096;51.338;12.524;2022-07-18T11:36:46;63458.50;;;-146.77;100.00
21863;BME280;11096;51.338;12.524;2022-07-18T11:39:13;63458.50;;;-146.77;100.00
21863;BME280;11096;51.338;12.524;2022-07-18T11:41:40;63458.50;;;-146.77;100.00
21863;BME280;11096;51.338;12.524;2022-07-18T11:44:18;63458.50;;;-146.77;100.00
21863;BME280;11096;51.338;12.524;2022-07-18T11:46:44;63458.50;;;-146.77;100.00
21863;BME280;11096;51.338;12.524;2022-07-18T11:49:10;63458.50;;;-146.77;100.00
21863;BME280;11096;51.338;12.524;2022-07-18T11:51:44;63458.50;;;-146.77;100.00
21863;BME280;11096;51.338;12.524;2022-07-18T11:54:11;63458.50;;;-146.77;100.00
21863;BME280;11096;51.338;12.524;2022-07-18T11:56:52;63458.50;;;-146.77;100.00
21863;BME280;11096;51.338;12.524;2022-07-18T11:59:18;63458.50;;;-146.77;100.00
21863;BME280;11096;51.338;12.524;2022-07-18T12:01:44;63458.50;;;-146.77;100.00
21863;BME280;11096;51.338;12.524;2022-07-18T12:04:21;63458.50;;;-146.77;100.00
21863;BME280;11096;51.338;12.524;2022-07-18T12:09:44;63458.50;;;-146.77;100.00
21863;BME280;11096;51.338;12.524;2022-07-18T12:12:12;63458.50;;;-146.77;100.00
21863;BME280;11096;51.338;12.524;2022-07-18T12:14:38;63458.50;;;-146.77;100.00
21863;BME280;11096;51.338;12.524;2022-07-18T12:17:04;63458.50;;;-146.77;100.00
21863;BME280;11096;51.338;12.524;2022-07-18T12:19:38;63458.50;;;-146.77;100.00
21863;BME280;11096;51.338;12.524;2022-07-18T12:22:11;63458.50;;;-146.77;100.00
21863;BME280;11096;51.338;12.524;2022-07-18T12:27:18;63458.50;;;-146.77;100.00
21863;BME280;11096;51.338;12.524;2022-07-18T12:35:27;63458.50;;;-146.77;100.00
21863;BME280;11096;51.338;12.524;2022-07-18T12:38:08;63458.50;;;-146.77;100.00
21863;BME280;11096;51.338;12.524;2022-07-18T12:40:53;63458.50;;;-146.77;100.00
21863;BME280;11096;51.338;12.524;2022-07-18T12:43:34;63458.50;;;-146.77;100.00
21863;BME280;11096;51.338;12.524;2022-07-18T12:46:03;63458.50;;;-146.77;100.00
21863;BME280;11096;51.338;12.524;2022-07-18T12:48:31;63458.50;;;-146.77;100.00
21863;BME280;11096;51.338;12.524;2022-07-18T12:51:05;63458.50;;;-146.77;100.00
21863;BME280;11096;51.338;12.524;2022-07-18T12:53:34;63458.50;;;-146.77;100.00
21863;BME280;11096;51.338;12.524;2022-07-18T12:56:00;63458.50;;;-146.77;100.00
21863;BME280;11096;51.338;12.524;2022-07-18T12:58:25;63458.50;;;-146.77;100.00
21863;BME280;11096;51.338;12.524;2022-07-18T13:00:51;63458.50;;;-146.77;100.00
21863;BME280;11096;51.338;12.524;2022-07-18T13:03:17;63458.50;;;-146.77;100.00
21863;BME280;11096;51.338;12.524;2022-07-18T13:05:42;63458.50;;;-146.77;100.00
21863;BME280;11096;51.338;12.524;2022-07-18T13:08:08;63458.50;;;-146.77;100.00
21863;BME280;11096;51.338;12.524;2022-07-18T13:10:35;63458.50;;;-146.77;100.00
21863;BME280;11096;51.338;12.524;2022-07-18T13:13:03;63458.50;;;-146.77;100.00
21863;BME280;11096;51.338;12.524;2022-07-18T13:15:28;63458.50;;;-146.77;100.00
21863;BME280;11096;51.338;12.524;2022-07-18T13:17:54;63458.50;;;-146.77;100.00
21863;BME280;11096;51.338;12.524;2022-07-18T13:20:20;63458.50;;;-146.77;100.00
21863;BME280;11096;51.338;12.524;2022-07-18T13:22:45;63458.50;;;-146.77;100.00
21863;BME280;11096;51.338;12.524;2022-07-18T13:25:10;63458.50;;;-146.77;100.00
21863;BME280;11096;51.338;12.524;2022-07-18T13:27:37;63458.50;;;-146.77;100.00